Time,TemperatureF,DewpointF,PressureIn,WindDirection,WindDirectionDegrees,WindSpeedMPH,WindSpeedGustMPH,Humidity,HourlyPrecipIn,Conditions,Clouds,dailyrainin,SoftwareType,DateUTC
2013-01-23 00:03:00,68.0,54.0,30.21,ENE,71,1.0,7.0,61,0.00,,,0.01,,2013-01-23 05:03:00,
2013-01-23 00:12:00,68.0,54.0,30.21,ENE,71,1.0,7.0,61,0.00,,,0.01,,2013-01-23 05:12:00,
2013-01-23 00:22:00,68.0,53.0,30.21,ENE,58,1.0,9.0,59,0.00,,,0.01,,2013-01-23 05:22:00,
2013-01-23 00:33:00,68.0,54.0,30.21,ENE,66,1.0,10.0,62,0.00,,,0.01,,2013-01-23 05:33:00,
2013-01-23 00:43:00,68.0,54.0,30.21,ENE,66,1.0,10.0,62,0.00,,,0.01,,2013-01-23 05:43:00,
2013-01-23 00:53:00,68.0,54.0,30.22,ENE,74,1.0,18.0,61,0.00,,,0.01,,2013-01-23 05:53:00,
2013-01-23 01:03:00,68.0,54.0,30.21,ENE,62,2.0,10.0,62,0.00,,,0.01,,2013-01-23 06:03:00,
2013-01-23 01:12:00,68.0,54.0,30.21,ENE,62,2.0,10.0,62,0.00,,,0.01,,2013-01-23 06:12:00,
2013-01-23 01:22:00,68.0,54.0,30.21,ENE,63,0.0,6.0,62,0.00,,,0.01,,2013-01-23 06:22:00,
2013-01-23 01:32:00,68.0,54.0,30.21,ENE,61,0.0,9.0,62,0.00,,,0.01,,2013-01-23 06:32:00,
2013-01-23 01:43:00,68.0,54.0,30.21,ENE,61,0.0,9.0,62,0.00,,,0.01,,2013-01-23 06:43:00,
2013-01-23 01:53:00,68.0,54.0,30.21,ENE,61,1.0,6.0,62,0.00,,,0.01,,2013-01-23 06:53:00,
2013-01-23 02:02:00,68.0,56.0,30.20,ENE,65,1.0,7.0,65,0.00,,,0.01,,2013-01-23 07:02:00,
2013-01-23 02:13:00,68.0,56.0,30.20,ENE,65,1.0,7.0,65,0.00,,,0.01,,2013-01-23 07:13:00,
2013-01-23 02:23:00,68.0,55.0,30.21,ENE,57,1.0,8.0,63,0.00,,,0.01,,2013-01-23 07:23:00,
2013-01-23 02:33:00,68.0,55.0,30.20,ENE,60,1.0,6.0,63,0.00,,,0.01,,2013-01-23 07:33:00,
2013-01-23 02:42:00,68.0,55.0,30.20,ENE,60,1.0,6.0,63,0.00,,,0.01,,2013-01-23 07:42:00,
2013-01-23 02:53:00,68.0,55.0,30.20,ENE,58,1.0,6.0,64,0.00,,,0.01,,2013-01-23 07:53:00,
2013-01-23 03:02:00,68.0,55.0,30.21,ENE,57,0.0,5.0,63,0.00,,,0.01,,2013-01-23 08:02:00,
2013-01-23 03:13:00,68.0,55.0,30.21,ENE,57,0.0,5.0,63,0.00,,,0.01,,2013-01-23 08:13:00,
2013-01-23 03:23:00,68.0,55.0,30.21,ENE,57,0.0,5.0,63,0.00,,,0.01,,2013-01-23 08:23:00,
2013-01-23 03:33:00,68.0,55.0,30.21,ENE,57,0.0,5.0,63,0.00,,,0.01,,2013-01-23 08:33:00,
2013-01-23 03:43:00,68.0,55.0,30.21,ENE,57,0.0,5.0,63,0.00,,,0.01,,2013-01-23 08:43:00,
2013-01-23 08:34:00,62.0,56.0,30.27,ENE,61,0.0,1.0,80,0.00,,,0.00,,2013-01-23 13:34:00,
2013-01-23 08:43:00,62.0,56.0,30.27,ENE,61,0.0,1.0,80,0.00,,,0.00,,2013-01-23 13:43:00,
2013-01-23 08:53:00,63.0,57.0,30.27,ENE,61,0.0,1.0,80,0.00,,,0.00,,2013-01-23 13:53:00,
2013-01-23 09:03:00,64.0,57.0,30.28,NNE,19,0.0,1.0,79,0.00,,,0.00,,2013-01-23 14:03:00,
2013-01-23 09:12:00,64.0,57.0,30.28,NNE,19,0.0,1.0,79,0.00,,,0.00,,2013-01-23 14:12:00,
2013-01-23 09:23:00,64.0,57.0,30.28,NNE,19,0.0,1.0,78,0.00,,,0.00,,2013-01-23 14:23:00,
2013-01-23 09:33:00,65.0,57.0,30.29,NNE,19,0.0,1.0,76,0.00,,,0.00,,2013-01-23 14:33:00,
2013-01-23 09:43:00,65.0,57.0,30.29,NNE,19,0.0,1.0,76,0.00,,,0.00,,2013-01-23 14:43:00,
2013-01-23 09:53:00,65.0,58.0,30.29,NNE,17,0.0,1.0,77,0.00,,,0.00,,2013-01-23 14:53:00,
2013-01-23 10:03:00,65.0,57.0,30.30,NNE,17,0.0,1.0,76,0.00,,,0.00,,2013-01-23 15:03:00,
2013-01-23 10:13:00,65.0,57.0,30.30,NNE,17,0.0,1.0,76,0.00,,,0.00,,2013-01-23 15:13:00,
2013-01-23 10:23:00,66.0,59.0,30.30,NNE,17,0.0,4.0,77,0.00,,,0.00,,2013-01-23 15:23:00,
2013-01-23 10:33:00,66.0,58.0,30.29,North,355,0.0,2.0,76,0.00,,,0.00,,2013-01-23 15:33:00,
2013-01-23 10:43:00,66.0,58.0,30.29,North,355,0.0,2.0,76,0.00,,,0.00,,2013-01-23 15:43:00,
2013-01-23 10:53:00,67.0,59.0,30.29,North,355,0.0,1.0,75,0.00,,,0.00,,2013-01-23 15:53:00,
2013-01-23 11:03:00,69.0,60.0,30.30,North,355,0.0,1.0,72,0.00,,,0.00,,2013-01-23 16:03:00,
2013-01-23 11:12:00,69.0,60.0,30.30,North,355,0.0,1.0,72,0.00,,,0.00,,2013-01-23 16:12:00,
2013-01-23 11:23:00,72.0,60.0,30.29,North,9,0.0,4.0,65,0.00,,,0.00,,2013-01-23 16:23:00,
2013-01-23 11:33:00,72.0,58.0,30.29,ENE,59,0.0,6.0,61,0.00,,,0.00,,2013-01-23 16:33:00,
2013-01-23 11:42:00,72.0,58.0,30.29,ENE,59,0.0,6.0,61,0.00,,,0.00,,2013-01-23 16:42:00,
2013-01-23 11:53:00,72.0,57.0,30.29,ENE,61,0.0,5.0,59,0.00,,,0.00,,2013-01-23 16:53:00,
2013-01-23 12:03:00,72.0,55.0,30.28,ENE,58,0.0,8.0,56,0.00,,,0.00,,2013-01-23 17:03:00,
2013-01-23 12:12:00,72.0,55.0,30.28,ENE,58,0.0,8.0,56,0.00,,,0.00,,2013-01-23 17:12:00,
2013-01-23 12:23:00,73.0,56.0,30.28,ENE,65,1.0,6.0,55,0.00,,,0.00,,2013-01-23 17:23:00,
2013-01-23 12:33:00,73.0,58.0,30.27,ENE,71,2.0,9.0,60,0.00,,,0.00,,2013-01-23 17:33:00,
2013-01-23 12:43:00,73.0,58.0,30.27,ENE,71,2.0,9.0,60,0.00,,,0.00,,2013-01-23 17:43:00,
2013-01-23 12:53:00,73.0,58.0,30.27,NE,55,1.0,10.0,59,0.00,,,0.00,,2013-01-23 17:53:00,
2013-01-23 13:03:00,72.0,57.0,30.26,ENE,57,1.0,8.0,59,0.00,,,0.00,,2013-01-23 18:03:00,
2013-01-23 13:12:00,72.0,57.0,30.26,ENE,57,1.0,8.0,59,0.00,,,0.00,,2013-01-23 18:12:00,
2013-01-23 13:23:00,74.0,58.0,30.24,ENE,59,1.0,8.0,57,0.00,,,0.00,,2013-01-23 18:23:00,
2013-01-23 13:33:00,74.0,58.0,30.24,ENE,59,1.0,8.0,57,0.00,,,0.00,,2013-01-23 18:33:00,
2013-01-23 13:43:00,74.0,57.0,30.25,ENE,67,2.0,10.0,55,0.00,,,0.00,,2013-01-23 18:43:00,
2013-01-23 13:53:00,74.0,57.0,30.24,ENE,60,3.0,10.0,56,0.00,,,0.00,,2013-01-23 18:53:00,
2013-01-23 14:03:00,74.0,57.0,30.24,ENE,57,3.0,8.0,56,0.00,,,0.00,,2013-01-23 19:03:00,
2013-01-23 14:13:00,74.0,57.0,30.24,ENE,57,3.0,8.0,56,0.00,,,0.00,,2013-01-23 19:13:00,
2013-01-23 14:23:00,74.0,57.0,30.23,NE,56,1.0,8.0,55,0.00,,,0.00,,2013-01-23 19:23:00,
2013-01-23 14:33:00,74.0,56.0,30.23,NE,55,2.0,11.0,54,0.00,,,0.00,,2013-01-23 19:33:00,
2013-01-23 14:43:00,74.0,56.0,30.23,NE,55,2.0,11.0,54,0.00,,,0.00,,2013-01-23 19:43:00,
2013-01-23 14:53:00,74.0,56.0,30.23,NE,55,3.0,9.0,54,0.00,,,0.00,,2013-01-23 19:53:00,
2013-01-23 15:03:00,74.0,56.0,30.23,NE,51,1.0,8.0,54,0.00,,,0.00,,2013-01-23 20:03:00,
2013-01-23 15:13:00,74.0,56.0,30.23,NE,51,1.0,8.0,54,0.00,,,0.00,,2013-01-23 20:13:00,
2013-01-23 15:23:00,74.0,56.0,30.23,ENE,57,1.0,7.0,53,0.00,,,0.00,,2013-01-23 20:23:00,
2013-01-23 15:33:00,74.0,56.0,30.23,ENE,62,3.0,8.0,53,0.00,,,0.00,,2013-01-23 20:33:00,
2013-01-23 15:43:00,74.0,56.0,30.23,ENE,62,3.0,8.0,53,0.00,,,0.00,,2013-01-23 20:43:00,
2013-01-23 15:54:00,73.0,55.0,30.23,ENE,64,2.0,7.0,54,0.00,,,0.00,,2013-01-23 20:54:00,
2013-01-23 16:03:00,74.0,56.0,30.23,ENE,63,4.0,9.0,54,0.00,,,0.00,,2013-01-23 21:03:00,
2013-01-23 16:12:00,74.0,56.0,30.23,ENE,63,4.0,9.0,54,0.00,,,0.00,,2013-01-23 21:12:00,
2013-01-23 16:23:00,72.0,56.0,30.24,ENE,61,0.0,5.0,57,0.00,,,0.00,,2013-01-23 21:23:00,
2013-01-23 16:33:00,73.0,56.0,30.24,ENE,58,1.0,6.0,55,0.00,,,0.00,,2013-01-23 21:33:00,
2013-01-23 16:43:00,73.0,56.0,30.24,ENE,58,1.0,6.0,55,0.00,,,0.00,,2013-01-23 21:43:00,
2013-01-23 16:53:00,71.0,56.0,30.24,ENE,61,1.0,9.0,59,0.00,,,0.00,,2013-01-23 21:53:00,
2013-01-23 17:03:00,72.0,56.0,30.24,ENE,61,0.0,8.0,58,0.00,,,0.00,,2013-01-23 22:03:00,
2013-01-23 17:13:00,72.0,56.0,30.24,ENE,61,0.0,8.0,58,0.00,,,0.00,,2013-01-23 22:13:00,
2013-01-23 17:23:00,72.0,57.0,30.24,NE,53,0.0,8.0,60,0.00,,,0.00,,2013-01-23 22:23:00,
2013-01-23 17:33:00,71.0,56.0,30.25,ENE,59,1.0,7.0,59,0.00,,,0.00,,2013-01-23 22:33:00,
2013-01-23 17:42:00,71.0,56.0,30.25,ENE,59,1.0,7.0,59,0.00,,,0.00,,2013-01-23 22:42:00,
2013-01-23 17:53:00,71.0,57.0,30.25,ENE,57,0.0,7.0,62,0.00,,,0.00,,2013-01-23 22:53:00,
2013-01-23 18:03:00,70.0,56.0,30.25,NE,51,0.0,9.0,61,0.00,,,0.00,,2013-01-23 23:03:00,
2013-01-23 18:13:00,70.0,56.0,30.25,NE,51,0.0,9.0,61,0.00,,,0.00,,2013-01-23 23:13:00,
2013-01-23 18:23:00,70.0,56.0,30.24,ENE,58,1.0,7.0,61,0.00,,,0.00,,2013-01-23 23:23:00,
2013-01-23 18:33:00,70.0,56.0,30.24,NE,50,0.0,9.0,61,0.00,,,0.00,,2013-01-23 23:33:00,
2013-01-23 18:43:00,70.0,56.0,30.24,NE,50,0.0,9.0,61,0.00,,,0.00,,2013-01-23 23:43:00,
2013-01-23 18:53:00,69.0,55.0,30.24,NE,49,1.0,6.0,62,0.00,,,0.00,,2013-01-23 23:53:00,
2013-01-23 19:03:00,69.0,56.0,30.25,NE,50,0.0,1.0,63,0.00,,,0.00,,2013-01-24 00:03:00,
2013-01-23 19:12:00,69.0,56.0,30.25,NE,50,0.0,1.0,63,0.00,,,0.00,,2013-01-24 00:12:00,
2013-01-23 19:22:00,69.0,57.0,30.25,NE,50,0.0,1.0,66,0.00,,,0.00,,2013-01-24 00:22:00,
2013-01-23 19:33:00,68.0,59.0,30.26,NE,50,0.0,1.0,73,0.00,,,0.00,,2013-01-24 00:33:00,
2013-01-23 19:43:00,68.0,59.0,30.26,NE,50,0.0,1.0,73,0.00,,,0.00,,2013-01-24 00:43:00,
2013-01-23 19:53:00,67.0,59.0,30.26,NE,49,0.0,2.0,75,0.00,,,0.00,,2013-01-24 00:53:00,
2013-01-23 20:03:00,66.0,58.0,30.27,NE,47,0.0,1.0,76,0.00,,,0.00,,2013-01-24 01:03:00,
2013-01-23 20:12:00,66.0,58.0,30.27,NE,47,0.0,1.0,76,0.00,,,0.00,,2013-01-24 01:12:00,
2013-01-23 20:23:00,66.0,59.0,30.27,NE,47,0.0,1.0,77,0.00,,,0.00,,2013-01-24 01:23:00,
2013-01-23 20:33:00,65.0,58.0,30.28,NE,47,0.0,1.0,78,0.00,,,0.00,,2013-01-24 01:33:00,
2013-01-23 20:43:00,65.0,58.0,30.28,NE,47,0.0,1.0,78,0.00,,,0.00,,2013-01-24 01:43:00,
2013-01-23 20:53:00,65.0,58.0,30.28,NE,47,0.0,1.0,78,0.00,,,0.00,,2013-01-24 01:53:00,
2013-01-23 21:02:00,64.0,57.0,30.28,NE,47,0.0,1.0,79,0.00,,,0.00,,2013-01-24 02:02:00,
2013-01-23 21:12:00,64.0,57.0,30.28,NE,47,0.0,1.0,79,0.00,,,0.00,,2013-01-24 02:12:00,
2013-01-23 21:22:00,64.0,58.0,30.28,NE,47,0.0,1.0,80,0.00,,,0.00,,2013-01-24 02:22:00,
2013-01-23 21:33:00,64.0,58.0,30.28,NE,47,0.0,1.0,80,0.00,,,0.00,,2013-01-24 02:33:00,
2013-01-23 21:42:00,64.0,58.0,30.28,NE,47,0.0,1.0,80,0.00,,,0.00,,2013-01-24 02:42:00,
2013-01-23 21:52:00,64.0,58.0,30.28,NE,47,0.0,1.0,80,0.00,,,0.00,,2013-01-24 02:52:00,
2013-01-23 22:03:00,63.0,57.0,30.28,NE,47,0.0,1.0,80,0.00,,,0.00,,2013-01-24 03:03:00,
2013-01-23 22:12:00,63.0,57.0,30.28,NE,47,0.0,1.0,80,0.00,,,0.00,,2013-01-24 03:12:00,
2013-01-23 22:22:00,63.0,57.0,30.28,NE,47,0.0,0.0,80,0.00,,,0.00,,2013-01-24 03:22:00,
2013-01-23 22:33:00,63.0,57.0,30.28,NE,47,0.0,0.0,81,0.00,,,0.00,,2013-01-24 03:33:00,
2013-01-23 22:43:00,63.0,57.0,30.28,NE,47,0.0,0.0,81,0.00,,,0.00,,2013-01-24 03:43:00,
2013-01-23 22:53:00,62.0,56.0,30.28,NE,47,0.0,0.0,82,0.00,,,0.00,,2013-01-24 03:53:00,
2013-01-23 23:02:00,62.0,56.0,30.28,NE,47,0.0,0.0,82,0.00,,,0.00,,2013-01-24 04:02:00,
2013-01-23 23:12:00,62.0,56.0,30.28,NE,47,0.0,0.0,82,0.00,,,0.00,,2013-01-24 04:12:00,
2013-01-23 23:22:00,61.0,56.0,30.27,NE,47,0.0,0.0,83,0.00,,,0.00,,2013-01-24 04:22:00,
2013-01-23 23:33:00,61.0,56.0,30.27,NE,47,0.0,0.0,83,0.00,,,0.00,,2013-01-24 04:33:00,
2013-01-23 23:42:00,61.0,56.0,30.27,NE,47,0.0,0.0,83,0.00,,,0.00,,2013-01-24 04:42:00,
2013-01-23 23:53:00,61.0,56.0,30.27,NE,47,0.0,0.0,83,0.00,,,0.00,,2013-01-24 04:53:00,